sensor_id;sensor_type;location;lat;lon;timestamp;temperature;humidity
65291;SHT30;51893;59.754;10.110;2023-07-08T00:01:37;17.20;74.95
65291;SHT30;51893;59.754;10.110;2023-07-08T00:04:05;17.21;75.06
65291;SHT30;51893;59.754;10.110;2023-07-08T00:06:35;17.19;75.24
65291;SHT30;51893;59.754;10.110;2023-07-08T00:09:07;17.17;75.40
65291;SHT30;51893;59.754;10.110;2023-07-08T00:11:39;17.16;75.52
65291;SHT30;51893;59.754;10.110;2023-07-08T00:14:07;17.14;75.60
65291;SHT30;51893;59.754;10.110;2023-07-08T00:16:35;17.12;75.52
65291;SHT30;51893;59.754;10.110;2023-07-08T00:19:07;17.15;75.62
65291;SHT30;51893;59.754;10.110;2023-07-08T00:21:37;17.11;75.75
65291;SHT30;51893;59.754;10.110;2023-07-08T00:24:05;17.08;75.71
65291;SHT30;51893;59.754;10.110;2023-07-08T00:26:35;17.14;75.66
65291;SHT30;51893;59.754;10.110;2023-07-08T00:29:05;17.12;75.85
65291;SHT30;51893;59.754;10.110;2023-07-08T00:31:37;17.10;75.82
65291;SHT30;51893;59.754;10.110;2023-07-08T00:34:06;17.10;75.87
65291;SHT30;51893;59.754;10.110;2023-07-08T00:36:34;17.09;76.06
65291;SHT30;51893;59.754;10.110;2023-07-08T00:39:02;17.08;76.17
65291;SHT30;51893;59.754;10.110;2023-07-08T00:41:32;17.03;76.44
65291;SHT30;51893;59.754;10.110;2023-07-08T00:44:07;16.98;76.64
65291;SHT30;51893;59.754;10.110;2023-07-08T00:46:52;16.93;76.87
65291;SHT30;51893;59.754;10.110;2023-07-08T00:52:29;17.03;76.72
65291;SHT30;51893;59.754;10.110;2023-07-08T00:54:58;17.06;76.90
65291;SHT30;51893;59.754;10.110;2023-07-08T00:57:39;17.04;77.08
65291;SHT30;51893;59.754;10.110;2023-07-08T01:00:12;17.00;77.26
65291;SHT30;51893;59.754;10.110;2023-07-08T01:02:46;16.99;77.27
65291;SHT30;51893;59.754;10.110;2023-07-08T01:05:24;16.97;77.29
65291;SHT30;51893;59.754;10.110;2023-07-08T01:07:58;16.96;77.34
65291;SHT30;51893;59.754;10.110;2023-07-08T01:10:43;16.94;77.90
65291;SHT30;51893;59.754;10.110;2023-07-08T01:13:24;16.97;78.10
65291;SHT30;51893;59.754;10.110;2023-07-08T01:15:52;17.00;78.13
65291;SHT30;51893;59.754;10.110;2023-07-08T01:18:21;17.04;78.07
65291;SHT30;51893;59.754;10.110;2023-07-08T01:20:52;17.05;78.36
65291;SHT30;51893;59.754;10.110;2023-07-08T01:23:23;17.07;78.51
65291;SHT30;51893;59.754;10.110;2023-07-08T01:25:52;17.07;78.55
65291;SHT30;51893;59.754;10.110;2023-07-08T01:28:20;17.04;78.71
65291;SHT30;51893;59.754;10.110;2023-07-08T01:30:48;17.02;78.87
65291;SHT30;51893;59.754;10.110;2023-07-08T01:33:18;17.00;79.00
65291;SHT30;51893;59.754;10.110;2023-07-08T01:35:52;17.06;78.80
65291;SHT30;51893;59.754;10.110;2023-07-08T01:38:24;17.08;78.71
65291;SHT30;51893;59.754;10.110;2023-07-08T01:40:56;17.13;78.57
65291;SHT30;51893;59.754;10.110;2023-07-08T01:43:26;17.14;78.48
65291;SHT30;51893;59.754;10.110;2023-07-08T01:45:54;17.16;78.24
65291;SHT30;51893;59.754;10.110;2023-07-08T01:48:29;17.14;78.45
65291;SHT30;51893;59.754;10.110;2023-07-08T01:51:05;17.08;78.64
65291;SHT30;51893;59.754;10.110;2023-07-08T01:53:38;17.03;78.92
65291;SHT30;51893;59.754;10.110;2023-07-08T01:56:12;16.99;79.24
65291;SHT30;51893;59.754;10.110;2023-07-08T01:58:41;16.98;79.27
65291;SHT30;51893;59.754;10.110;2023-07-08T02:01:09;16.96;79.28
65291;SHT30;51893;59.754;10.110;2023-07-08T02:03:38;16.98;79.12
65291;SHT30;51893;59.754;10.110;2023-07-08T02:06:07;17.03;78.94
65291;SHT30;51893;59.754;10.110;2023-07-08T02:08:36;17.06;78.79
65291;SHT30;51893;59.754;10.110;2023-07-08T02:11:04;17.06;78.76
65291;SHT30;51893;59.754;10.110;2023-07-08T02:13:32;17.02;78.94
65291;SHT30;51893;59.754;10.110;2023-07-08T02:16:00;16.98;79.28
65291;SHT30;51893;59.754;10.110;2023-07-08T02:18:29;16.95;79.20
65291;SHT30;51893;59.754;10.110;2023-07-08T02:20:59;16.94;79.22
65291;SHT30;51893;59.754;10.110;2023-07-08T02:23:28;16.94;79.18
65291;SHT30;51893;59.754;10.110;2023-07-08T02:25:56;16.91;79.27
65291;SHT30;51893;59.754;10.110;2023-07-08T02:28:24;16.88;79.34
65291;SHT30;51893;59.754;10.110;2023-07-08T02:30:52;16.83;79.69
65291;SHT30;51893;59.754;10.110;2023-07-08T02:33:20;16.81;79.69
65291;SHT30;51893;59.754;10.110;2023-07-08T02:35:48;16.77;79.80
65291;SHT30;51893;59.754;10.110;2023-07-08T02:38:16;16.72;79.92
65291;SHT30;51893;59.754;10.110;2023-07-08T02:40:44;16.70;79.90
65291;SHT30;51893;59.754;10.110;2023-07-08T02:43:15;16.71;79.73
65291;SHT30;51893;59.754;10.110;2023-07-08T02:45:42;16.72;79.70
65291;SHT30;51893;59.754;10.110;2023-07-08T02:48:11;16.75;79.71
65291;SHT30;51893;59.754;10.110;2023-07-08T02:50:39;16.78;79.69
65291;SHT30;51893;59.754;10.110;2023-07-08T02:53:06;16.78;79.72
65291;SHT30;51893;59.754;10.110;2023-07-08T02:55:34;16.75;79.78
65291;SHT30;51893;59.754;10.110;2023-07-08T02:58:03;16.72;79.69
65291;SHT30;51893;59.754;10.110;2023-07-08T03:00:33;16.72;79.78
65291;SHT30;51893;59.754;10.110;2023-07-08T03:03:01;16.74;79.66
65291;SHT30;51893;59.754;10.110;2023-07-08T03:05:31;16.75;79.62
65291;SHT30;51893;59.754;10.110;2023-07-08T03:07:59;16.77;79.61
65291;SHT30;51893;59.754;10.110;2023-07-08T03:10:27;16.76;79.59
65291;SHT30;51893;59.754;10.110;2023-07-08T03:12:55;16.78;79.60
65291;SHT30;51893;59.754;10.110;2023-07-08T03:15:23;16.69;80.06
65291;SHT30;51893;59.754;10.110;2023-07-08T03:17:51;16.58;80.32
65291;SHT30;51893;59.754;10.110;2023-07-08T03:20:25;16.51;80.37
65291;SHT30;51893;59.754;10.110;2023-07-08T03:22:53;16.48;80.30
65291;SHT30;51893;59.754;10.110;2023-07-08T03:25:21;16.46;80.43
65291;SHT30;51893;59.754;10.110;2023-07-08T03:27:49;16.47;80.43
65291;SHT30;51893;59.754;10.110;2023-07-08T03:30:17;16.49;80.39
65291;SHT30;51893;59.754;10.110;2023-07-08T03:32:46;16.52;80.28
65291;SHT30;51893;59.754;10.110;2023-07-08T03:35:14;16.53;80.41
65291;SHT30;51893;59.754;10.110;2023-07-08T03:37:42;16.54;80.40
65291;SHT30;51893;59.754;10.110;2023-07-08T03:40:11;16.57;80.32
65291;SHT30;51893;59.754;10.110;2023-07-08T03:42:40;16.61;80.29
65291;SHT30;51893;59.754;10.110;2023-07-08T03:45:09;16.61;80.31
65291;SHT30;51893;59.754;10.110;2023-07-08T03:47:37;16.67;80.32
65291;SHT30;51893;59.754;10.110;2023-07-08T03:50:08;16.68;80.31
65291;SHT30;51893;59.754;10.110;2023-07-08T03:52:53;16.72;80.15
65291;SHT30;51893;59.754;10.110;2023-07-08T03:55:22;16.76;80.22
65291;SHT30;51893;59.754;10.110;2023-07-08T03:57:50;16.77;80.21
65291;SHT30;51893;59.754;10.110;2023-07-08T04:00:19;16.75;80.33
65291;SHT30;51893;59.754;10.110;2023-07-08T04:02:47;16.77;80.26
65291;SHT30;51893;59.754;10.110;2023-07-08T04:05:17;16.80;80.43
65291;SHT30;51893;59.754;10.110;2023-07-08T04:07:48;16.79;80.72
65291;SHT30;51893;59.754;10.110;2023-07-08T04:10:16;16.79;80.51
65291;SHT30;51893;59.754;10.110;2023-07-08T04:12:44;16.84;80.50
65291;SHT30;51893;59.754;10.110;2023-07-08T04:15:12;16.86;80.50
65291;SHT30;51893;59.754;10.110;2023-07-08T04:17:45;16.89;80.57
65291;SHT30;51893;59.754;10.110;2023-07-08T04:20:17;16.93;80.50
65291;SHT30;51893;59.754;10.110;2023-07-08T04:22:46;16.94;80.54
65291;SHT30;51893;59.754;10.110;2023-07-08T04:25:15;16.96;80.56
65291;SHT30;51893;59.754;10.110;2023-07-08T04:27:43;17.02;80.64
65291;SHT30;51893;59.754;10.110;2023-07-08T04:30:22;17.12;80.63
65291;SHT30;51893;59.754;10.110;2023-07-08T04:32:53;17.21;80.36
65291;SHT30;51893;59.754;10.110;2023-07-08T04:35:24;17.33;80.06
65291;SHT30;51893;59.754;10.110;2023-07-08T04:37:53;17.37;79.86
65291;SHT30;51893;59.754;10.110;2023-07-08T04:40:23;17.41;79.84
65291;SHT30;51893;59.754;10.110;2023-07-08T04:42:51;17.45;79.77
65291;SHT30;51893;59.754;10.110;2023-07-08T04:45:19;17.50;79.70
65291;SHT30;51893;59.754;10.110;2023-07-08T04:47:49;17.56;79.83
65291;SHT30;51893;59.754;10.110;2023-07-08T04:50:20;17.64;79.85
65291;SHT30;51893;59.754;10.110;2023-07-08T04:52:49;17.67;79.79
65291;SHT30;51893;59.754;10.110;2023-07-08T04:55:17;17.73;79.50
65291;SHT30;51893;59.754;10.110;2023-07-08T04:57:46;17.81;79.34
65291;SHT30;51893;59.754;10.110;2023-07-08T05:00:15;17.88;79.11
65291;SHT30;51893;59.754;10.110;2023-07-08T05:02:47;17.93;78.86
65291;SHT30;51893;59.754;10.110;2023-07-08T05:05:16;17.92;78.85
65291;SHT30;51893;59.754;10.110;2023-07-08T05:07:44;17.91;78.96
65291;SHT30;51893;59.754;10.110;2023-07-08T05:10:13;17.97;78.93
65291;SHT30;51893;59.754;10.110;2023-07-08T05:12:42;17.97;78.84
65291;SHT30;51893;59.754;10.110;2023-07-08T05:15:12;17.94;78.77
65291;SHT30;51893;59.754;10.110;2023-07-08T05:17:42;17.93;78.86
65291;SHT30;51893;59.754;10.110;2023-07-08T05:20:11;17.95;78.74
65291;SHT30;51893;59.754;10.110;2023-07-08T05:22:42;17.94;78.80
65291;SHT30;51893;59.754;10.110;2023-07-08T05:25:11;17.88;78.82
65291;SHT30;51893;59.754;10.110;2023-07-08T05:27:40;17.84;78.88
65291;SHT30;51893;59.754;10.110;2023-07-08T05:30:11;17.83;78.97
65291;SHT30;51893;59.754;10.110;2023-07-08T05:32:44;17.85;78.97
65291;SHT30;51893;59.754;10.110;2023-07-08T05:35:13;17.91;79.03
65291;SHT30;51893;59.754;10.110;2023-07-08T05:37:41;17.93;79.01
65291;SHT30;51893;59.754;10.110;2023-07-08T05:40:12;17.98;78.98
65291;SHT30;51893;59.754;10.110;2023-07-08T05:42:40;18.07;78.84
65291;SHT30;51893;59.754;10.110;2023-07-08T05:45:08;18.12;78.68
65291;SHT30;51893;59.754;10.110;2023-07-08T05:47:38;18.20;78.71
65291;SHT30;51893;59.754;10.110;2023-07-08T05:50:07;18.28;78.72
65291;SHT30;51893;59.754;10.110;2023-07-08T05:52:35;18.35;78.56
65291;SHT30;51893;59.754;10.110;2023-07-08T05:55:05;18.39;78.36
65291;SHT30;51893;59.754;10.110;2023-07-08T05:57:34;18.44;78.22
65291;SHT30;51893;59.754;10.110;2023-07-08T06:00:02;18.51;78.10
65291;SHT30;51893;59.754;10.110;2023-07-08T06:02:33;18.58;77.99
65291;SHT30;51893;59.754;10.110;2023-07-08T06:05:02;18.68;77.95
65291;SHT30;51893;59.754;10.110;2023-07-08T06:07:31;18.78;77.80
65291;SHT30;51893;59.754;10.110;2023-07-08T06:10:00;18.86;77.50
65291;SHT30;51893;59.754;10.110;2023-07-08T06:12:28;18.91;77.44
65291;SHT30;51893;59.754;10.110;2023-07-08T06:14:58;18.95;77.22
65291;SHT30;51893;59.754;10.110;2023-07-08T06:17:26;19.03;77.21
65291;SHT30;51893;59.754;10.110;2023-07-08T06:19:54;19.10;77.01
65291;SHT30;51893;59.754;10.110;2023-07-08T06:22:23;19.16;76.88
65291;SHT30;51893;59.754;10.110;2023-07-08T06:25:10;19.23;76.65
65291;SHT30;51893;59.754;10.110;2023-07-08T06:27:38;19.26;76.70
65291;SHT30;51893;59.754;10.110;2023-07-08T06:30:07;19.27;76.47
65291;SHT30;51893;59.754;10.110;2023-07-08T06:32:36;19.21;76.48
65291;SHT30;51893;59.754;10.110;2023-07-08T06:35:05;19.25;76.66
65291;SHT30;51893;59.754;10.110;2023-07-08T06:37:34;19.32;76.34
65291;SHT30;51893;59.754;10.110;2023-07-08T06:40:02;19.33;76.11
65291;SHT30;51893;59.754;10.110;2023-07-08T06:42:30;19.32;76.08
65291;SHT30;51893;59.754;10.110;2023-07-08T06:44:58;19.34;76.10
65291;SHT30;51893;59.754;10.110;2023-07-08T06:47:26;19.40;75.96
65291;SHT30;51893;59.754;10.110;2023-07-08T06:49:55;19.45;75.69
65291;SHT30;51893;59.754;10.110;2023-07-08T06:52:26;19.49;75.58
65291;SHT30;51893;59.754;10.110;2023-07-08T06:54:54;19.52;75.70
65291;SHT30;51893;59.754;10.110;2023-07-08T06:57:22;19.60;75.67
65291;SHT30;51893;59.754;10.110;2023-07-08T06:59:50;19.64;75.42
65291;SHT30;51893;59.754;10.110;2023-07-08T07:02:19;19.65;75.30
65291;SHT30;51893;59.754;10.110;2023-07-08T07:04:47;19.73;75.39
65291;SHT30;51893;59.754;10.110;2023-07-08T07:07:15;19.77;75.27
65291;SHT30;51893;59.754;10.110;2023-07-08T07:09:43;19.83;75.20
65291;SHT30;51893;59.754;10.110;2023-07-08T07:12:12;19.83;74.91
65291;SHT30;51893;59.754;10.110;2023-07-08T07:14:46;19.78;75.17
65291;SHT30;51893;59.754;10.110;2023-07-08T07:17:15;19.84;75.16
65291;SHT30;51893;59.754;10.110;2023-07-08T07:19:43;19.90;74.94
65291;SHT30;51893;59.754;10.110;2023-07-08T07:22:11;19.91;74.53
65291;SHT30;51893;59.754;10.110;2023-07-08T07:24:39;19.92;74.56
65291;SHT30;51893;59.754;10.110;2023-07-08T07:27:08;19.93;74.58
65291;SHT30;51893;59.754;10.110;2023-07-08T07:29:41;20.01;74.74
65291;SHT30;51893;59.754;10.110;2023-07-08T07:32:12;20.04;74.36
65291;SHT30;51893;59.754;10.110;2023-07-08T07:34:42;20.07;74.40
65291;SHT30;51893;59.754;10.110;2023-07-08T07:37:13;20.16;74.44
65291;SHT30;51893;59.754;10.110;2023-07-08T07:39:44;20.26;74.08
65291;SHT30;51893;59.754;10.110;2023-07-08T07:42:14;20.26;73.63
65291;SHT30;51893;59.754;10.110;2023-07-08T07:44:44;20.26;73.42
65291;SHT30;51893;59.754;10.110;2023-07-08T07:47:13;20.23;73.71
65291;SHT30;51893;59.754;10.110;2023-07-08T07:49:41;20.22;73.77
65291;SHT30;51893;59.754;10.110;2023-07-08T07:52:09;20.32;73.89
65291;SHT30;51893;59.754;10.110;2023-07-08T07:54:38;20.40;73.26
65291;SHT30;51893;59.754;10.110;2023-07-08T07:57:07;20.49;73.07
65291;SHT30;51893;59.754;10.110;2023-07-08T07:59:35;20.57;72.82
65291;SHT30;51893;59.754;10.110;2023-07-08T08:02:03;20.59;72.49
65291;SHT30;51893;59.754;10.110;2023-07-08T08:04:31;20.59;72.48
65291;SHT30;51893;59.754;10.110;2023-07-08T08:06:59;20.62;72.16
65291;SHT30;51893;59.754;10.110;2023-07-08T08:09:27;20.62;72.02
65291;SHT30;51893;59.754;10.110;2023-07-08T08:11:57;20.70;71.93
65291;SHT30;51893;59.754;10.110;2023-07-08T08:14:25;20.78;71.15
65291;SHT30;51893;59.754;10.110;2023-07-08T08:16:53;20.78;70.65
65291;SHT30;51893;59.754;10.110;2023-07-08T08:19:22;20.78;69.90
65291;SHT30;51893;59.754;10.110;2023-07-08T08:21:50;20.82;68.72
65291;SHT30;51893;59.754;10.110;2023-07-08T08:24:18;20.88;68.51
65291;SHT30;51893;59.754;10.110;2023-07-08T08:26:46;20.96;68.04
65291;SHT30;51893;59.754;10.110;2023-07-08T08:29:15;21.02;67.49
65291;SHT30;51893;59.754;10.110;2023-07-08T08:31:43;21.07;66.53
65291;SHT30;51893;59.754;10.110;2023-07-08T08:34:12;21.17;66.47
65291;SHT30;51893;59.754;10.110;2023-07-08T08:36:40;21.25;66.10
65291;SHT30;51893;59.754;10.110;2023-07-08T08:39:10;21.31;66.09
65291;SHT30;51893;59.754;10.110;2023-07-08T08:41:40;21.39;66.00
65291;SHT30;51893;59.754;10.110;2023-07-08T08:44:13;21.44;65.61
65291;SHT30;51893;59.754;10.110;2023-07-08T08:46:57;21.61;66.35
65291;SHT30;51893;59.754;10.110;2023-07-08T08:49:44;21.77;65.46
65291;SHT30;51893;59.754;10.110;2023-07-08T08:52:21;21.88;65.32
65291;SHT30;51893;59.754;10.110;2023-07-08T08:54:50;22.02;65.12
65291;SHT30;51893;59.754;10.110;2023-07-08T08:57:40;22.17;64.77
65291;SHT30;51893;59.754;10.110;2023-07-08T09:00:23;22.36;63.97
65291;SHT30;51893;59.754;10.110;2023-07-08T09:03:10;22.56;63.02
65291;SHT30;51893;59.754;10.110;2023-07-08T09:05:45;22.63;61.91
65291;SHT30;51893;59.754;10.110;2023-07-08T09:08:23;22.66;61.58
65291;SHT30;51893;59.754;10.110;2023-07-08T09:14:27;22.76;61.14
65291;SHT30;51893;59.754;10.110;2023-07-08T09:17:00;22.81;60.77
65291;SHT30;51893;59.754;10.110;2023-07-08T09:23:03;22.73;61.13
65291;SHT30;51893;59.754;10.110;2023-07-08T09:25:48;22.99;61.46
65291;SHT30;51893;59.754;10.110;2023-07-08T09:28:35;23.14;61.39
65291;SHT30;51893;59.754;10.110;2023-07-08T09:31:24;23.27;60.06
65291;SHT30;51893;59.754;10.110;2023-07-08T09:34:15;23.42;60.80
65291;SHT30;51893;59.754;10.110;2023-07-08T09:36:48;23.60;60.47
65291;SHT30;51893;59.754;10.110;2023-07-08T09:39:20;23.71;60.04
65291;SHT30;51893;59.754;10.110;2023-07-08T09:41:48;23.75;59.79
65291;SHT30;51893;59.754;10.110;2023-07-08T09:44:27;23.93;59.79
65291;SHT30;51893;59.754;10.110;2023-07-08T09:46:58;24.11;59.32
65291;SHT30;51893;59.754;10.110;2023-07-08T09:49:36;24.22;59.17
65291;SHT30;51893;59.754;10.110;2023-07-08T09:52:04;24.33;58.19
65291;SHT30;51893;59.754;10.110;2023-07-08T09:54:33;24.44;58.10
65291;SHT30;51893;59.754;10.110;2023-07-08T09:57:04;24.57;57.49
65291;SHT30;51893;59.754;10.110;2023-07-08T09:59:49;24.78;57.84
65291;SHT30;51893;59.754;10.110;2023-07-08T10:02:40;24.94;56.69
65291;SHT30;51893;59.754;10.110;2023-07-08T10:05:24;25.06;56.86
65291;SHT30;51893;59.754;10.110;2023-07-08T10:08:01;25.19;55.70
65291;SHT30;51893;59.754;10.110;2023-07-08T10:10:42;25.26;55.79
65291;SHT30;51893;59.754;10.110;2023-07-08T10:19:12;25.43;53.73
65291;SHT30;51893;59.754;10.110;2023-07-08T10:24:38;25.49;52.25
65291;SHT30;51893;59.754;10.110;2023-07-08T10:27:27;25.40;52.74
65291;SHT30;51893;59.754;10.110;2023-07-08T10:36:16;25.54;49.67
65291;SHT30;51893;59.754;10.110;2023-07-08T10:44:40;25.41;49.73
65291;SHT30;51893;59.754;10.110;2023-07-08T10:56:16;25.45;50.79
65291;SHT30;51893;59.754;10.110;2023-07-08T10:59:06;25.30;51.14
65291;SHT30;51893;59.754;10.110;2023-07-08T11:05:40;25.10;51.52
65291;SHT30;51893;59.754;10.110;2023-07-08T11:14:27;24.79;51.74
65291;SHT30;51893;59.754;10.110;2023-07-08T11:17:34;24.75;52.67
65291;SHT30;51893;59.754;10.110;2023-07-08T11:20:18;24.77;52.24
65291;SHT30;51893;59.754;10.110;2023-07-08T11:23:16;24.81;52.29
65291;SHT30;51893;59.754;10.110;2023-07-08T11:26:07;24.87;52.24
65291;SHT30;51893;59.754;10.110;2023-07-08T11:28:59;24.84;52.10
65291;SHT30;51893;59.754;10.110;2023-07-08T11:31:30;24.80;52.58
65291;SHT30;51893;59.754;10.110;2023-07-08T11:34:01;24.81;52.37
65291;SHT30;51893;59.754;10.110;2023-07-08T11:36:31;24.79;52.16
65291;SHT30;51893;59.754;10.110;2023-07-08T11:39:01;24.79;51.93
65291;SHT30;51893;59.754;10.110;2023-07-08T11:41:30;24.85;51.94
65291;SHT30;51893;59.754;10.110;2023-07-08T11:44:03;24.89;51.30
65291;SHT30;51893;59.754;10.110;2023-07-08T11:46:33;24.87;50.95
65291;SHT30;51893;59.754;10.110;2023-07-08T11:49:04;24.88;50.99
65291;SHT30;51893;59.754;10.110;2023-07-08T11:51:42;24.89;50.50
65291;SHT30;51893;59.754;10.110;2023-07-08T11:54:28;24.90;50.46
65291;SHT30;51893;59.754;10.110;2023-07-08T11:57:05;24.95;50.49
65291;SHT30;51893;59.754;10.110;2023-07-08T11:59:44;25.06;51.46
65291;SHT30;51893;59.754;10.110;2023-07-08T12:02:17;25.17;51.15
65291;SHT30;51893;59.754;10.110;2023-07-08T12:05:01;25.30;50.65
65291;SHT30;51893;59.754;10.110;2023-07-08T12:07:47;25.39;49.83
65291;SHT30;51893;59.754;10.110;2023-07-08T12:13:11;25.45;48.57
65291;SHT30;51893;59.754;10.110;2023-07-08T12:15:44;25.47;48.96
65291;SHT30;51893;59.754;10.110;2023-07-08T12:18:14;25.57;49.35
65291;SHT30;51893;59.754;10.110;2023-07-08T12:20:56;25.70;49.39
65291;SHT30;51893;59.754;10.110;2023-07-08T12:23:29;25.97;49.77
65291;SHT30;51893;59.754;10.110;2023-07-08T12:25:57;26.34;48.72
65291;SHT30;51893;59.754;10.110;2023-07-08T12:28:25;26.57;47.60
65291;SHT30;51893;59.754;10.110;2023-07-08T12:30:54;26.71;47.61
65291;SHT30;51893;59.754;10.110;2023-07-08T12:33:29;27.00;47.31
65291;SHT30;51893;59.754;10.110;2023-07-08T12:36:02;27.11;46.14
65291;SHT30;51893;59.754;10.110;2023-07-08T12:38:33;27.09;46.25
65291;SHT30;51893;59.754;10.110;2023-07-08T12:41:11;27.00;45.12
65291;SHT30;51893;59.754;10.110;2023-07-08T12:43:44;26.88;45.34
65291;SHT30;51893;59.754;10.110;2023-07-08T12:46:15;26.77;45.82
65291;SHT30;51893;59.754;10.110;2023-07-08T12:48:49;26.72;45.68
65291;SHT30;51893;59.754;10.110;2023-07-08T12:51:18;26.62;44.72
65291;SHT30;51893;59.754;10.110;2023-07-08T12:53:51;26.53;45.40
65291;SHT30;51893;59.754;10.110;2023-07-08T12:56:23;26.45;45.67
65291;SHT30;51893;59.754;10.110;2023-07-08T12:58:53;26.43;45.82
65291;SHT30;51893;59.754;10.110;2023-07-08T13:01:25;26.41;45.70
65291;SHT30;51893;59.754;10.110;2023-07-08T13:03:59;26.37;45.48
65291;SHT30;51893;59.754;10.110;2023-07-08T13:06:33;26.34;46.04
65291;SHT30;51893;59.754;10.110;2023-07-08T13:09:07;26.31;45.67
65291;SHT30;51893;59.754;10.110;2023-07-08T13:11:46;26.23;45.27
65291;SHT30;51893;59.754;10.110;2023-07-08T13:14:15;26.19;45.21
65291;SHT30;51893;59.754;10.110;2023-07-08T13:16:44;26.18;44.83
65291;SHT30;51893;59.754;10.110;2023-07-08T13:19:14;26.20;45.38
65291;SHT30;51893;59.754;10.110;2023-07-08T13:21:42;26.18;45.12
65291;SHT30;51893;59.754;10.110;2023-07-08T13:24:12;26.16;45.34
65291;SHT30;51893;59.754;10.110;2023-07-08T13:26:40;26.19;46.34
65291;SHT30;51893;59.754;10.110;2023-07-08T13:29:15;26.19;45.21
65291;SHT30;51893;59.754;10.110;2023-07-08T13:31:52;26.09;45.05
65291;SHT30;51893;59.754;10.110;2023-07-08T13:34:30;25.98;45.23
65291;SHT30;51893;59.754;10.110;2023-07-08T13:37:00;25.92;45.57
65291;SHT30;51893;59.754;10.110;2023-07-08T13:39:30;25.83;45.73
65291;SHT30;51893;59.754;10.110;2023-07-08T13:42:02;25.79;46.86
65291;SHT30;51893;59.754;10.110;2023-07-08T13:44:41;25.74;46.73
65291;SHT30;51893;59.754;10.110;2023-07-08T13:47:26;25.69;47.28
65291;SHT30;51893;59.754;10.110;2023-07-08T13:50:01;25.60;47.73
65291;SHT30;51893;59.754;10.110;2023-07-08T13:52:43;25.57;48.35
65291;SHT30;51893;59.754;10.110;2023-07-08T13:55:17;25.56;48.58
65291;SHT30;51893;59.754;10.110;2023-07-08T13:57:57;25.54;48.24
65291;SHT30;51893;59.754;10.110;2023-07-08T14:00:29;25.52;48.88
65291;SHT30;51893;59.754;10.110;2023-07-08T14:02:58;25.55;50.03
65291;SHT30;51893;59.754;10.110;2023-07-08T14:05:27;25.58;49.57
65291;SHT30;51893;59.754;10.110;2023-07-08T14:07:55;25.63;49.57
65291;SHT30;51893;59.754;10.110;2023-07-08T14:10:23;25.67;49.11
65291;SHT30;51893;59.754;10.110;2023-07-08T14:12:51;25.71;49.41
65291;SHT30;51893;59.754;10.110;2023-07-08T14:15:19;25.77;49.29
65291;SHT30;51893;59.754;10.110;2023-07-08T14:17:47;25.86;48.83
65291;SHT30;51893;59.754;10.110;2023-07-08T14:20:17;25.93;48.23
65291;SHT30;51893;59.754;10.110;2023-07-08T14:22:46;26.03;48.49
65291;SHT30;51893;59.754;10.110;2023-07-08T14:25:15;26.16;48.19
65291;SHT30;51893;59.754;10.110;2023-07-08T14:27:44;26.22;47.13
65291;SHT30;51893;59.754;10.110;2023-07-08T14:30:12;26.18;46.56
65291;SHT30;51893;59.754;10.110;2023-07-08T14:32:41;26.19;47.19
65291;SHT30;51893;59.754;10.110;2023-07-08T14:35:12;26.18;46.95
65291;SHT30;51893;59.754;10.110;2023-07-08T14:37:45;26.14;46.76
65291;SHT30;51893;59.754;10.110;2023-07-08T14:43:00;26.05;46.98
65291;SHT30;51893;59.754;10.110;2023-07-08T14:45:37;26.04;46.96
65291;SHT30;51893;59.754;10.110;2023-07-08T14:48:15;26.05;47.76
65291;SHT30;51893;59.754;10.110;2023-07-08T14:50:45;26.05;47.13
65291;SHT30;51893;59.754;10.110;2023-07-08T14:53:15;26.02;46.95
65291;SHT30;51893;59.754;10.110;2023-07-08T14:55:45;25.95;47.19
65291;SHT30;51893;59.754;10.110;2023-07-08T14:58:27;25.91;47.67
65291;SHT30;51893;59.754;10.110;2023-07-08T15:01:04;25.86;47.51
65291;SHT30;51893;59.754;10.110;2023-07-08T15:03:43;25.82;47.46
65291;SHT30;51893;59.754;10.110;2023-07-08T15:06:11;25.81;48.07
65291;SHT30;51893;59.754;10.110;2023-07-08T15:08:39;25.81;48.01
65291;SHT30;51893;59.754;10.110;2023-07-08T15:11:09;25.80;48.28
65291;SHT30;51893;59.754;10.110;2023-07-08T15:13:40;25.76;47.88
65291;SHT30;51893;59.754;10.110;2023-07-08T15:16:13;25.74;48.36
65291;SHT30;51893;59.754;10.110;2023-07-08T15:18:43;25.71;48.55
65291;SHT30;51893;59.754;10.110;2023-07-08T15:21:12;25.67;49.02
65291;SHT30;51893;59.754;10.110;2023-07-08T15:23:42;25.63;50.00
65291;SHT30;51893;59.754;10.110;2023-07-08T15:26:11;25.59;49.57
65291;SHT30;51893;59.754;10.110;2023-07-08T15:28:42;25.56;48.64
65291;SHT30;51893;59.754;10.110;2023-07-08T15:31:18;25.58;48.50
65291;SHT30;51893;59.754;10.110;2023-07-08T15:33:52;25.59;50.72
65291;SHT30;51893;59.754;10.110;2023-07-08T15:36:23;25.59;51.05
65291;SHT30;51893;59.754;10.110;2023-07-08T15:38:52;25.59;51.04
65291;SHT30;51893;59.754;10.110;2023-07-08T15:41:20;25.60;50.21
65291;SHT30;51893;59.754;10.110;2023-07-08T15:43:53;25.61;49.70
65291;SHT30;51893;59.754;10.110;2023-07-08T15:46:32;25.63;48.99
65291;SHT30;51893;59.754;10.110;2023-07-08T15:49:18;25.66;49.63
65291;SHT30;51893;59.754;10.110;2023-07-08T15:51:58;25.69;49.34
65291;SHT30;51893;59.754;10.110;2023-07-08T15:54:27;25.73;49.80
65291;SHT30;51893;59.754;10.110;2023-07-08T15:56:55;25.73;48.96
65291;SHT30;51893;59.754;10.110;2023-07-08T15:59:26;25.78;48.93
65291;SHT30;51893;59.754;10.110;2023-07-08T16:01:59;25.83;48.00
65291;SHT30;51893;59.754;10.110;2023-07-08T16:04:39;25.90;48.78
65291;SHT30;51893;59.754;10.110;2023-07-08T16:07:08;26.10;48.78
65291;SHT30;51893;59.754;10.110;2023-07-08T16:09:36;26.39;47.67
65291;SHT30;51893;59.754;10.110;2023-07-08T16:12:05;26.57;47.71
65291;SHT30;51893;59.754;10.110;2023-07-08T16:14:34;26.80;47.81
65291;SHT30;51893;59.754;10.110;2023-07-08T16:17:02;26.91;47.25
65291;SHT30;51893;59.754;10.110;2023-07-08T16:19:38;26.93;47.18
65291;SHT30;51893;59.754;10.110;2023-07-08T16:22:06;26.96;47.17
65291;SHT30;51893;59.754;10.110;2023-07-08T16:24:35;27.13;46.40
65291;SHT30;51893;59.754;10.110;2023-07-08T16:27:04;27.37;45.53
65291;SHT30;51893;59.754;10.110;2023-07-08T16:29:33;27.51;45.57
65291;SHT30;51893;59.754;10.110;2023-07-08T16:32:01;27.71;45.42
65291;SHT30;51893;59.754;10.110;2023-07-08T16:34:29;27.91;45.29
65291;SHT30;51893;59.754;10.110;2023-07-08T16:36:57;28.05;44.59
65291;SHT30;51893;59.754;10.110;2023-07-08T16:39:25;28.15;44.29